Terminal Aerodrome Forecast
Issued by NWS

Home | Current Version | Previous Version | Text Only | Print | Product List | Glossary On
Versions: 1 2 3 4 5 6 7 8 9 10 11 12
923
FTUS42 TJSJ 092347
TAFNCM
TAF
TNCM 092347Z 1000/1024 11010KT P6SM SCT018 SCT022 SCT035
     FM101300 12011KT P6SM SCT022
     FM102300 10010KT P6SM FEW018 FEW030=

USA.gov is the U.S. government's official web portal to all federal, state and local government web resources and services.